createdAt,value
2018-05-15T00:02:18.198Z,13.44
2018-05-15T00:04:50.638Z,13.47
2018-05-15T00:07:23.290Z,13.34
2018-05-15T00:09:55.723Z,13.31
2018-05-15T00:12:28.364Z,13.30
2018-05-15T00:15:00.730Z,13.33
2018-05-15T00:17:33.252Z,13.25
2018-05-15T00:20:05.871Z,13.30
2018-05-15T00:22:38.392Z,13.30
2018-05-15T00:25:10.909Z,13.35
2018-05-15T00:27:43.551Z,13.33
2018-05-15T00:30:15.995Z,13.27
2018-05-15T00:32:48.386Z,13.23
2018-05-15T00:35:20.766Z,13.30
2018-05-15T00:37:53.367Z,13.19
2018-05-15T00:40:25.691Z,13.38
2018-05-15T00:42:58.316Z,13.34
2018-05-15T00:45:30.802Z,13.39
2018-05-15T00:48:03.320Z,13.31
2018-05-15T00:50:35.750Z,13.44
2018-05-15T00:53:08.098Z,13.42
2018-05-15T00:55:44.476Z,13.33
2018-05-15T00:58:16.978Z,13.32
2018-05-15T01:00:49.562Z,13.23
2018-05-15T01:03:22.146Z,13.30
2018-05-15T01:05:54.715Z,13.23
2018-05-15T01:08:27.334Z,13.17
2018-05-15T01:10:59.646Z,13.17
2018-05-15T01:13:32.131Z,13.18
2018-05-15T01:16:04.590Z,13.07
2018-05-15T01:18:37.084Z,13.03
2018-05-15T01:21:09.619Z,13.04
2018-05-15T01:23:42.073Z,12.99
2018-05-15T01:26:14.580Z,12.98
2018-05-15T01:28:47.228Z,12.90
2018-05-15T01:31:19.689Z,12.96
2018-05-15T01:33:52.305Z,12.94
2018-05-15T01:36:24.827Z,12.84
2018-05-15T01:38:57.400Z,12.77
2018-05-15T01:41:29.974Z,12.59
2018-05-15T01:44:02.676Z,12.70
2018-05-15T01:46:35.129Z,12.89
2018-05-15T01:49:07.474Z,12.85
2018-05-15T01:51:40.036Z,12.77
2018-05-15T01:54:12.550Z,12.79
2018-05-15T01:56:45.002Z,12.73
2018-05-15T01:59:17.424Z,12.74
2018-05-15T02:01:49.795Z,12.74
2018-05-15T02:04:22.153Z,12.67
2018-05-15T02:06:54.395Z,12.76
2018-05-15T02:09:26.767Z,12.81
2018-05-15T02:11:59.027Z,12.73
2018-05-15T02:14:31.436Z,12.53
2018-05-15T02:17:03.876Z,12.62
2018-05-15T02:19:36.296Z,12.73
2018-05-15T02:22:08.877Z,12.62
2018-05-15T02:24:41.168Z,12.76
2018-05-15T02:27:13.636Z,12.79
2018-05-15T02:29:45.995Z,12.76
2018-05-15T02:32:18.436Z,12.42
2018-05-15T02:34:50.803Z,11.98
2018-05-15T02:37:23.270Z,11.62
2018-05-15T02:39:55.743Z,11.72
2018-05-15T02:42:28.040Z,11.51
2018-05-15T02:45:00.560Z,11.33
2018-05-15T02:47:33.045Z,11.49
2018-05-15T02:50:05.417Z,11.80
2018-05-15T02:52:37.867Z,12.02
2018-05-15T02:55:10.210Z,12.25
2018-05-15T02:57:42.431Z,11.98
2018-05-15T03:00:14.870Z,12.09
2018-05-15T03:02:47.292Z,12.28
2018-05-15T03:05:19.614Z,12.55
2018-05-15T03:07:51.930Z,12.60
2018-05-15T03:10:24.342Z,12.75
2018-05-15T03:12:56.642Z,12.76
2018-05-15T03:15:29.196Z,12.48
2018-05-15T03:18:01.672Z,12.11
2018-05-15T03:20:34.045Z,12.02
2018-05-15T03:23:06.443Z,12.04
2018-05-15T03:25:38.989Z,12.29
2018-05-15T03:28:11.253Z,12.42
2018-05-15T03:30:43.716Z,12.59
2018-05-15T03:33:15.977Z,12.57
2018-05-15T03:35:48.456Z,12.62
2018-05-15T03:38:21.546Z,12.67
2018-05-15T03:40:54.510Z,12.76
2018-05-15T03:43:27.107Z,12.94
2018-05-15T03:45:59.674Z,12.81
2018-05-15T03:48:32.237Z,12.94
2018-05-15T03:51:04.964Z,13.08
2018-05-15T03:53:37.313Z,13.30
2018-05-15T03:56:09.811Z,13.12
2018-05-15T03:58:42.173Z,13.20
2018-05-15T04:01:26.538Z,13.21
2018-05-15T04:04:10.940Z,13.39
2018-05-15T04:06:55.367Z,13.39
2018-05-15T04:09:27.809Z,13.20
2018-05-15T04:12:00.068Z,13.19
2018-05-15T04:14:32.404Z,13.30
2018-05-15T04:17:04.858Z,13.32
2018-05-15T04:19:38.228Z,13.12
2018-05-15T04:22:10.565Z,13.12
2018-05-15T04:24:43.102Z,12.97
2018-05-15T04:27:15.553Z,12.85
2018-05-15T04:29:47.762Z,12.92
2018-05-15T04:32:20.140Z,13.10
2018-05-15T04:34:52.674Z,13.13
2018-05-15T04:37:24.931Z,13.24
2018-05-15T04:39:57.220Z,13.36
2018-05-15T04:42:29.675Z,13.63
2018-05-15T04:45:02.075Z,13.74
2018-05-15T04:47:34.648Z,13.76
2018-05-15T04:50:07.127Z,14.01
2018-05-15T04:52:39.634Z,14.25
2018-05-15T04:55:12.067Z,14.24
2018-05-15T04:57:44.614Z,14.41
2018-05-15T05:00:17.212Z,14.53
2018-05-15T05:02:49.659Z,14.89
2018-05-15T05:05:22.053Z,14.88
2018-05-15T05:07:54.424Z,15.00
2018-05-15T05:10:26.748Z,15.20
2018-05-15T05:12:59.262Z,15.38
2018-05-15T05:15:31.560Z,15.32
2018-05-15T05:18:04.142Z,15.64
2018-05-15T05:20:36.536Z,15.26
2018-05-15T05:23:08.820Z,15.39
2018-05-15T05:25:41.679Z,15.65
2018-05-15T05:28:14.211Z,15.78
2018-05-15T05:30:46.623Z,15.77
2018-05-15T05:33:19.168Z,15.94
2018-05-15T05:35:51.566Z,16.26
2018-05-15T05:38:23.879Z,16.13
2018-05-15T05:40:50.132Z,16.50
2018-05-15T05:43:16.366Z,16.77
2018-05-15T05:45:42.646Z,17.04
2018-05-15T05:48:08.889Z,17.26
2018-05-15T05:50:35.113Z,17.72
2018-05-15T05:53:01.459Z,17.89
2018-05-15T05:55:27.696Z,18.02
2018-05-15T05:57:53.915Z,18.02
2018-05-15T06:00:20.219Z,18.39
2018-05-15T06:02:46.443Z,18.50
2018-05-15T06:05:12.686Z,18.46
2018-05-15T06:07:38.931Z,18.57
2018-05-15T06:10:05.167Z,18.95
2018-05-15T06:12:31.403Z,18.83
2018-05-15T06:14:57.735Z,18.74
2018-05-15T06:17:23.955Z,18.88
2018-05-15T06:19:50.187Z,19.05
2018-05-15T06:22:16.424Z,19.15
2018-05-15T06:24:42.629Z,19.07
2018-05-15T06:27:08.984Z,18.73
2018-05-15T06:29:35.211Z,18.66
2018-05-15T06:32:01.433Z,18.62
2018-05-15T06:34:27.653Z,18.77
2018-05-15T06:36:54.269Z,18.70
2018-05-15T06:39:20.485Z,18.86
2018-05-15T06:41:46.706Z,18.71
2018-05-15T06:44:12.982Z,18.75
2018-05-15T06:46:39.200Z,18.80
2018-05-15T06:49:05.451Z,19.14
2018-05-15T06:51:31.713Z,19.01
2018-05-15T06:53:57.920Z,18.70
2018-05-15T06:56:29.626Z,18.66
2018-05-15T06:58:56.009Z,18.36
2018-05-15T07:01:22.266Z,18.49
2018-05-15T07:03:48.476Z,18.58
2018-05-15T07:06:14.777Z,18.52
2018-05-15T07:08:41.144Z,18.29
2018-05-15T07:11:07.377Z,18.42
2018-05-15T07:13:33.656Z,18.58
2018-05-15T07:15:59.866Z,18.98
2018-05-15T07:18:26.129Z,19.43
2018-05-15T07:20:52.417Z,20.00
2018-05-15T07:23:18.675Z,19.86
2018-05-15T07:25:45.070Z,19.57
2018-05-15T07:28:11.405Z,19.41
2018-05-15T07:30:37.673Z,19.57
2018-05-15T07:33:03.960Z,19.70
2018-05-15T07:35:30.212Z,19.85
2018-05-15T07:37:56.446Z,20.02
2018-05-15T07:40:22.703Z,20.23
2018-05-15T07:42:49.046Z,20.25
2018-05-15T07:45:15.295Z,20.83
2018-05-15T07:47:41.503Z,21.30
2018-05-15T07:50:07.776Z,21.87
2018-05-15T07:52:34.010Z,22.23
2018-05-15T07:55:00.243Z,22.27
2018-05-15T07:57:26.524Z,22.76
2018-05-15T07:59:52.749Z,22.65
2018-05-15T08:02:18.973Z,22.20
2018-05-15T08:04:45.279Z,22.29
2018-05-15T08:07:11.508Z,22.22
2018-05-15T08:09:37.761Z,22.04
2018-05-15T08:12:04.084Z,21.79
2018-05-15T08:14:30.308Z,21.75
2018-05-15T08:16:56.543Z,21.50
2018-05-15T08:19:22.842Z,21.19
2018-05-15T08:21:49.064Z,21.03
2018-05-15T08:24:15.282Z,21.33
2018-05-15T08:26:41.594Z,21.82
2018-05-15T08:29:07.957Z,22.38
2018-05-15T08:31:34.197Z,22.54
2018-05-15T08:34:00.451Z,23.14
2018-05-15T08:36:26.681Z,23.18
2018-05-15T08:38:52.912Z,22.96
2018-05-15T08:41:19.176Z,23.20
2018-05-15T08:43:45.418Z,23.48
2018-05-15T08:46:11.654Z,22.42
2018-05-15T08:48:38.045Z,21.50
2018-05-15T08:51:04.290Z,21.57
2018-05-15T08:53:30.524Z,21.53
2018-05-15T08:55:56.771Z,21.96
2018-05-15T08:58:22.994Z,22.56
2018-05-15T09:00:49.212Z,22.49
2018-05-15T09:03:15.465Z,22.17
2018-05-15T09:05:41.675Z,21.93
2018-05-15T09:08:07.946Z,21.95
2018-05-15T09:10:34.259Z,21.95
2018-05-15T09:13:00.494Z,21.95
2018-05-15T09:15:26.733Z,22.07
2018-05-15T09:17:52.986Z,22.40
2018-05-15T09:20:19.225Z,23.24
2018-05-15T09:22:45.519Z,23.44
2018-05-15T09:25:11.804Z,23.62
2018-05-15T09:27:38.043Z,24.02
2018-05-15T09:30:04.439Z,24.24
2018-05-15T09:32:30.772Z,24.78
2018-05-15T09:34:57.015Z,25.31
2018-05-15T09:37:23.256Z,25.84
2018-05-15T09:39:49.544Z,25.51
2018-05-15T09:42:15.811Z,25.03
2018-05-15T09:44:42.026Z,25.39
2018-05-15T09:47:08.308Z,25.34
2018-05-15T09:49:34.519Z,25.52
2018-05-15T09:52:00.741Z,25.72
2018-05-15T09:54:27.063Z,25.80
2018-05-15T09:56:53.311Z,25.76
2018-05-15T09:59:19.558Z,25.88
2018-05-15T10:01:45.820Z,26.00
2018-05-15T10:04:12.079Z,25.72
2018-05-15T10:06:38.303Z,25.52
2018-05-15T10:09:04.613Z,25.15
2018-05-15T10:11:31.120Z,25.04
2018-05-15T10:13:57.336Z,24.72
2018-05-15T10:16:23.636Z,24.32
2018-05-15T10:18:49.872Z,24.12
2018-05-15T10:21:16.094Z,24.03
2018-05-15T10:23:42.370Z,24.22
2018-05-15T10:26:08.599Z,24.18
2018-05-15T10:28:34.833Z,24.71
2018-05-15T10:31:01.175Z,25.31
2018-05-15T10:33:27.440Z,26.09
2018-05-15T10:35:53.646Z,26.02
2018-05-15T10:38:19.945Z,25.30
2018-05-15T10:40:46.191Z,25.36
2018-05-15T10:43:12.432Z,25.48
2018-05-15T10:45:38.688Z,24.88
2018-05-15T10:48:04.904Z,25.14
2018-05-15T10:50:31.128Z,25.38
2018-05-15T10:52:57.413Z,25.19
2018-05-15T10:55:23.644Z,25.78
2018-05-15T10:57:49.880Z,26.40
2018-05-15T11:00:16.249Z,26.24
2018-05-15T11:02:42.443Z,26.71
2018-05-15T11:05:08.706Z,26.73
2018-05-15T11:07:34.975Z,27.34
2018-05-15T11:10:01.229Z,26.75
2018-05-15T11:12:27.456Z,26.43
2018-05-15T11:14:53.732Z,26.41
2018-05-15T11:17:19.935Z,26.64
2018-05-15T11:19:58.431Z,27.32
2018-05-15T11:22:36.673Z,26.85
2018-05-15T11:25:03.004Z,27.66
2018-05-15T11:27:29.335Z,28.21
2018-05-15T11:29:55.564Z,28.20
2018-05-15T11:32:21.940Z,28.56
2018-05-15T11:34:48.196Z,28.69
2018-05-15T11:37:14.436Z,28.53
2018-05-15T11:39:40.836Z,28.81
2018-05-15T11:42:07.113Z,28.95
2018-05-15T11:44:33.316Z,28.37
2018-05-15T11:46:59.565Z,27.81
2018-05-15T11:49:26.702Z,27.48
2018-05-15T11:51:52.895Z,27.48
2018-05-15T11:54:18.361Z,27.70
2018-05-15T11:56:44.613Z,28.18
2018-05-15T11:59:10.853Z,28.46
2018-05-15T12:01:37.196Z,28.73
2018-05-15T12:04:03.534Z,29.11
2018-05-15T12:06:29.764Z,28.16
2018-05-15T12:08:56.034Z,28.33
2018-05-15T12:11:22.244Z,28.52
2018-05-15T12:13:48.467Z,29.05
2018-05-15T12:16:14.761Z,29.08
2018-05-15T12:18:40.984Z,28.69
2018-05-15T12:21:07.244Z,28.65
2018-05-15T12:23:33.563Z,28.68
2018-05-15T12:25:59.798Z,29.01
2018-05-15T12:28:26.048Z,29.18
2018-05-15T12:30:52.331Z,29.08
2018-05-15T12:33:18.855Z,29.35
2018-05-15T12:35:45.091Z,28.53
2018-05-15T12:38:11.379Z,28.02
2018-05-15T12:40:37.625Z,27.36
2018-05-15T12:43:03.855Z,26.88
2018-05-15T12:45:30.196Z,26.62
2018-05-15T12:47:56.433Z,26.75
2018-05-15T12:50:22.663Z,27.19
2018-05-15T12:52:48.969Z,27.20
2018-05-15T12:55:15.195Z,27.57
2018-05-15T12:57:41.434Z,27.44
2018-05-15T13:00:07.710Z,27.40
2018-05-15T13:02:33.932Z,27.62
2018-05-15T13:05:00.163Z,27.68
2018-05-15T13:07:26.578Z,27.56
2018-05-15T13:09:58.660Z,27.27
2018-05-15T13:12:24.920Z,27.61
2018-05-15T13:14:51.219Z,27.39
2018-05-15T13:17:17.460Z,27.26
2018-05-15T13:19:43.707Z,27.87
2018-05-15T13:22:10.034Z,28.65
2018-05-15T13:24:36.358Z,28.10
2018-05-15T13:27:02.552Z,27.30
2018-05-15T13:29:32.443Z,27.83
2018-05-15T13:31:58.690Z,28.03
2018-05-15T13:34:25.111Z,28.06
2018-05-15T13:36:51.323Z,27.45
2018-05-15T13:39:17.571Z,26.97
2018-05-15T13:41:43.815Z,26.68
2018-05-15T13:44:10.101Z,26.63
2018-05-15T13:46:36.379Z,27.01
2018-05-15T13:49:02.650Z,26.74
2018-05-15T13:51:29.009Z,26.79
2018-05-15T13:53:55.243Z,26.93
2018-05-15T13:56:21.504Z,27.18
2018-05-15T13:58:47.786Z,28.11
2018-05-15T14:01:14.036Z,28.56
2018-05-15T14:03:40.280Z,26.90
2018-05-15T14:06:06.665Z,26.57
2018-05-15T14:08:32.915Z,27.11
2018-05-15T14:10:59.169Z,27.19
2018-05-15T14:13:25.574Z,26.23
2018-05-15T14:15:51.819Z,25.72
2018-05-15T14:18:18.120Z,25.55
2018-05-15T14:20:44.406Z,25.12
2018-05-15T14:23:10.672Z,25.06
2018-05-15T14:25:36.946Z,24.80
2018-05-15T14:28:03.248Z,24.64
2018-05-15T14:30:29.508Z,24.61
2018-05-15T14:32:55.751Z,24.54
2018-05-15T14:35:23.067Z,24.50
2018-05-15T14:37:49.298Z,24.26
2018-05-15T14:40:15.532Z,23.95
2018-05-15T14:42:53.790Z,23.74
2018-05-15T14:45:20.049Z,23.66
2018-05-15T14:47:47.360Z,23.52
2018-05-15T14:50:13.736Z,23.49
2018-05-15T14:52:39.982Z,23.30
2018-05-15T14:55:06.228Z,23.09
2018-05-15T14:57:32.659Z,22.97
2018-05-15T14:59:58.930Z,22.81
2018-05-15T15:02:25.179Z,22.73
2018-05-15T15:04:51.454Z,23.00
2018-05-15T15:07:17.728Z,23.16
2018-05-15T15:09:43.977Z,23.37
2018-05-15T15:12:10.323Z,23.45
2018-05-15T15:14:36.578Z,23.27
2018-05-15T15:17:02.839Z,23.16
2018-05-15T15:19:29.218Z,23.03
2018-05-15T15:21:55.475Z,22.95
2018-05-15T15:24:21.760Z,22.90
2018-05-15T15:26:48.080Z,22.75
2018-05-15T15:29:14.418Z,22.56
2018-05-15T15:31:40.682Z,22.74
2018-05-15T15:34:06.997Z,22.78
2018-05-15T15:36:33.362Z,22.87
2018-05-15T15:38:59.624Z,22.53
2018-05-15T15:41:25.989Z,22.48
2018-05-15T15:43:52.271Z,22.55
2018-05-15T15:46:18.520Z,22.50
2018-05-15T15:48:44.804Z,22.29
2018-05-15T15:51:11.069Z,22.19
2018-05-15T15:53:37.344Z,22.17
2018-05-15T15:56:03.687Z,22.08
2018-05-15T15:58:29.931Z,22.04
2018-05-15T16:00:56.201Z,21.92
2018-05-15T16:03:22.554Z,21.75
2018-05-15T16:05:48.813Z,21.80
2018-05-15T16:08:15.078Z,21.60
2018-05-15T16:10:41.375Z,21.40
2018-05-15T16:13:07.626Z,21.39
2018-05-15T16:15:33.915Z,21.34
2018-05-15T16:18:00.192Z,21.33
2018-05-15T16:20:26.432Z,21.35
2018-05-15T16:22:52.730Z,21.19
2018-05-15T16:25:19.106Z,21.17
2018-05-15T16:27:45.343Z,21.16
2018-05-15T16:30:11.601Z,21.01
2018-05-15T16:32:37.896Z,21.13
2018-05-15T16:35:04.155Z,21.28
2018-05-15T16:37:30.554Z,21.12
2018-05-15T16:39:56.825Z,20.99
2018-05-15T16:42:23.101Z,20.84
2018-05-15T16:44:49.354Z,20.80
2018-05-15T16:47:15.702Z,20.71
2018-05-15T16:49:41.958Z,20.57
2018-05-15T16:52:08.230Z,20.54
2018-05-15T16:54:34.539Z,20.43
2018-05-15T16:57:00.779Z,20.39
2018-05-15T16:59:27.037Z,20.42
2018-05-15T17:01:53.322Z,20.30
2018-05-15T17:04:19.621Z,20.22
2018-05-15T17:06:45.873Z,20.16
2018-05-15T17:09:12.234Z,20.08
2018-05-15T17:11:38.736Z,19.96
2018-05-15T17:14:08.760Z,19.93
2018-05-15T17:16:35.129Z,19.85
2018-05-15T17:19:01.375Z,19.83
2018-05-15T17:21:27.632Z,19.83
2018-05-15T17:23:53.923Z,19.81
2018-05-15T17:26:20.219Z,19.74
2018-05-15T17:28:46.468Z,19.78
2018-05-15T17:31:17.128Z,19.72
2018-05-15T17:33:43.358Z,19.68
2018-05-15T17:36:09.599Z,19.67
2018-05-15T17:38:41.217Z,19.64
2018-05-15T17:41:07.949Z,19.60
2018-05-15T17:43:34.227Z,19.58
2018-05-15T17:48:32.329Z,19.50
2018-05-15T17:50:58.585Z,19.50
2018-05-15T17:53:24.943Z,19.49
2018-05-15T17:55:51.183Z,19.53
2018-05-15T17:58:17.428Z,19.52
2018-05-15T18:00:43.729Z,19.43
2018-05-15T18:03:09.976Z,19.42
2018-05-15T18:05:36.253Z,19.36
2018-05-15T18:08:02.594Z,19.37
2018-05-15T18:10:28.892Z,19.26
2018-05-15T18:12:55.436Z,19.16
2018-05-15T18:15:21.819Z,19.11
2018-05-15T18:17:48.229Z,19.09
2018-05-15T18:20:14.503Z,19.07
2018-05-15T18:22:41.412Z,19.02
2018-05-15T18:25:07.746Z,19.04
2018-05-15T18:27:34.121Z,18.96
2018-05-15T18:30:00.423Z,18.90
2018-05-15T18:32:26.677Z,18.93
2018-05-15T18:34:53.447Z,18.92
2018-05-15T18:37:19.855Z,18.96
2018-05-15T18:39:46.328Z,18.93
2018-05-15T18:42:12.579Z,18.91
2018-05-15T18:44:39.384Z,18.95
2018-05-15T18:47:05.628Z,18.92
2018-05-15T18:49:31.894Z,18.89
2018-05-15T18:51:58.182Z,18.87
2018-05-15T18:54:24.428Z,18.87
2018-05-15T18:56:50.692Z,18.83
2018-05-15T18:59:18.438Z,18.80
2018-05-15T19:01:45.342Z,18.79
2018-05-15T19:04:17.844Z,18.79
2018-05-15T19:06:50.274Z,18.77
2018-05-15T19:09:22.694Z,18.76
2018-05-15T19:11:55.063Z,18.72
2018-05-15T19:14:27.814Z,18.71
2018-05-15T19:17:03.489Z,18.69
2018-05-15T19:19:36.055Z,18.67
2018-05-15T19:22:08.447Z,18.61
2018-05-15T19:24:41.525Z,18.64
2018-05-15T19:27:14.044Z,18.66
2018-05-15T19:29:47.639Z,18.73
2018-05-15T19:32:20.091Z,18.67
2018-05-15T19:34:55.394Z,18.69
2018-05-15T19:37:27.954Z,18.67
2018-05-15T19:40:00.840Z,18.69
2018-05-15T19:42:33.228Z,18.66
2018-05-15T19:45:05.715Z,18.61
2018-05-15T19:47:37.979Z,18.59
2018-05-15T19:50:10.485Z,18.55
2018-05-15T19:52:42.995Z,18.57
2018-05-15T19:55:15.348Z,18.53
2018-05-15T19:57:48.372Z,18.52
2018-05-15T20:00:21.164Z,18.51
2018-05-15T20:02:53.628Z,18.51
2018-05-15T20:05:26.037Z,18.47
2018-05-15T20:07:58.447Z,18.49
2018-05-15T20:10:30.979Z,18.45
2018-05-15T20:13:03.503Z,18.42
2018-05-15T20:15:36.072Z,18.43
2018-05-15T20:18:08.487Z,18.44
2018-05-15T20:20:41.036Z,18.38
2018-05-15T20:23:13.627Z,18.40
2018-05-15T20:25:46.046Z,18.42
2018-05-15T20:28:18.512Z,18.38
2018-05-15T20:30:51.910Z,18.38
2018-05-15T20:33:24.295Z,18.37
2018-05-15T20:35:56.715Z,18.38
2018-05-15T20:38:29.187Z,18.35
2018-05-15T20:41:01.758Z,18.30
2018-05-15T20:43:34.069Z,18.29
2018-05-15T20:46:06.721Z,18.20
2018-05-15T20:48:39.157Z,18.22
2018-05-15T20:51:11.548Z,18.25
2018-05-15T20:53:44.045Z,18.26
2018-05-15T20:56:16.571Z,18.21
2018-05-15T20:58:49.027Z,18.18
2018-05-15T21:01:21.687Z,18.21
2018-05-15T21:03:54.091Z,18.23
2018-05-15T21:06:26.656Z,18.20
2018-05-15T21:08:59.081Z,18.14
2018-05-15T21:11:31.455Z,18.16
2018-05-15T21:14:03.786Z,18.21
2018-05-15T21:16:36.278Z,18.20
2018-05-15T21:19:08.712Z,18.24
2018-05-15T21:21:41.261Z,18.24
2018-05-15T21:24:13.668Z,18.26
2018-05-15T21:26:46.057Z,18.26
2018-05-15T21:29:18.499Z,18.26
2018-05-15T21:31:50.895Z,18.24
2018-05-15T21:34:23.366Z,18.25
2018-05-15T21:36:55.925Z,18.26
2018-05-15T21:39:28.437Z,18.27
2018-05-15T21:42:07.675Z,18.29
2018-05-15T21:44:40.156Z,18.25
2018-05-15T21:47:12.903Z,18.22
2018-05-15T21:49:45.426Z,18.21
2018-05-15T21:52:17.755Z,18.09
2018-05-15T21:54:50.028Z,17.97
2018-05-15T21:57:22.509Z,17.87
2018-05-15T21:59:55.053Z,17.74
2018-05-15T22:02:27.657Z,17.63
2018-05-15T22:05:00.199Z,17.54
2018-05-15T22:07:32.772Z,17.48
2018-05-15T22:10:05.166Z,17.47
2018-05-15T22:12:49.468Z,17.43
2018-05-15T22:15:33.996Z,17.43
2018-05-15T22:18:18.469Z,17.38
2018-05-15T22:21:03.047Z,17.37
2018-05-15T22:23:35.252Z,17.21
2018-05-15T22:26:07.729Z,16.95
2018-05-15T22:28:40.075Z,16.92
2018-05-15T22:31:12.583Z,16.85
2018-05-15T22:33:45.063Z,16.68
2018-05-15T22:36:17.435Z,16.71
2018-05-15T22:38:50.144Z,16.17
2018-05-15T22:41:24.093Z,16.17
2018-05-15T22:43:57.210Z,16.14
2018-05-15T22:46:30.122Z,16.10
2018-05-15T22:49:02.701Z,16.05
2018-05-15T22:51:34.995Z,16.21
2018-05-15T22:54:07.333Z,16.14
2018-05-15T22:56:39.709Z,15.99
2018-05-15T22:59:12.044Z,15.91
2018-05-15T23:01:44.372Z,15.89
2018-05-15T23:04:17.092Z,15.75
2018-05-15T23:06:49.481Z,15.74
2018-05-15T23:09:21.802Z,15.56
2018-05-15T23:11:54.283Z,15.65
2018-05-15T23:14:26.762Z,15.72
2018-05-15T23:16:59.365Z,15.73
2018-05-15T23:19:31.858Z,15.63
2018-05-15T23:22:04.328Z,15.60
2018-05-15T23:24:36.652Z,15.53
2018-05-15T23:27:09.128Z,15.25
2018-05-15T23:29:41.485Z,15.48
2018-05-15T23:32:13.890Z,15.53
2018-05-15T23:34:46.515Z,15.50
2018-05-15T23:37:18.829Z,15.23
2018-05-15T23:39:51.156Z,15.34
2018-05-15T23:42:23.656Z,15.36
2018-05-15T23:44:56.138Z,15.43
2018-05-15T23:47:28.526Z,15.55
2018-05-15T23:50:01.083Z,16.07
2018-05-15T23:52:33.569Z,16.09
2018-05-15T23:55:06.197Z,16.04
2018-05-15T23:57:38.729Z,15.47
